Time;durP1;ratioP1;P1;durP2;ratioP2;P2;SDS_P1;SDS_P2;PMS_P1;PMS_P2;Temp;Humidity;BMP_temperature;BMP_pressure;BME280_temperature;BME280_humidity;BME280_pressure;Samples;Min_cycle;Max_cycle;Signal;HPM_P1;HPM_P2
2022/06/13 00:01:01;;;;;;;12.68;3.47;;;14.10;98.60;;;;;;5039228;28;20044;-67
2022/06/13 00:03:26;;;;;;;12.30;3.20;;;14.10;98.50;;;;;;5024164;28;20049;-67
2022/06/13 00:05:52;;;;;;;17.40;3.38;;;14.10;98.50;;;;;;5040505;28;20092;-67
2022/06/13 00:08:18;;;;;;;13.65;3.47;;;14.10;98.50;;;;;;5041987;28;20038;-69
2022/06/13 00:10:43;;;;;;;16.10;3.00;;;14.10;98.50;;;;;;5041739;28;20324;-67
2022/06/13 00:13:09;;;;;;;17.30;3.13;;;14.00;98.50;;;;;;5041548;28;20053;-67
2022/06/13 00:15:35;;;;;;;13.82;3.13;;;14.00;98.50;;;;;;5045222;28;20370;-67
2022/06/13 00:18:00;;;;;;;14.80;3.42;;;14.00;98.50;;;;;;5043812;28;20037;-68
2022/06/13 00:20:26;;;;;;;12.25;2.85;;;14.00;98.50;;;;;;5043866;28;20025;-67
2022/06/13 00:22:52;;;;;;;18.27;3.78;;;13.90;98.40;;;;;;5044643;28;20059;-67
2022/06/13 00:25:17;;;;;;;11.55;3.00;;;14.00;98.40;;;;;;5027136;28;20221;-67
2022/06/13 00:27:43;;;;;;;11.70;3.60;;;14.00;98.30;;;;;;5043967;28;20096;-67
2022/06/13 00:30:10;;;;;;;14.88;3.13;;;13.90;98.30;;;;;;5044726;28;20025;-67
2022/06/13 00:32:36;;;;;;;8.85;2.50;;;13.90;98.20;;;;;;5043279;28;20032;-67
2022/06/13 00:35:02;;;;;;;14.15;2.97;;;13.90;98.20;;;;;;5044902;28;20288;-67
2022/06/13 00:37:28;;;;;;;9.48;2.50;;;13.90;98.20;;;;;;5043803;28;20033;-67
2022/06/13 00:39:54;;;;;;;10.85;2.75;;;13.90;98.20;;;;;;5043374;28;20139;-67
2022/06/13 00:42:22;;;;;;;9.45;2.47;;;13.90;98.20;;;;;;5044682;28;20029;-67
2022/06/13 00:45:28;;;;;;;9.52;2.95;;;13.90;98.10;;;;;;5044162;28;20251;-67
2022/06/13 00:47:56;;;;;;;15.30;2.85;;;13.90;98.10;;;;;;5026611;28;20032;-67
2022/06/13 00:50:29;;;;;;;13.20;2.17;;;13.90;98.00;;;;;;5043333;28;20029;-67
2022/06/13 00:53:19;;;;;;;9.88;2.13;;;13.90;98.00;;;;;;5042284;28;20041;-66
2022/06/13 00:55:48;;;;;;;12.05;2.88;;;13.80;97.90;;;;;;5043226;28;20029;-67
2022/06/13 00:58:14;;;;;;;11.20;2.15;;;13.80;98.00;;;;;;5042586;28;20394;-69
2022/06/13 01:00:46;;;;;;;13.52;2.30;;;13.80;97.90;;;;;;5043101;28;20056;-69
2022/06/13 01:03:13;;;;;;;11.18;2.47;;;13.80;97.90;;;;;;5042821;28;20084;-66
2022/06/13 01:05:43;;;;;;;9.93;2.72;;;13.80;97.90;;;;;;5044255;28;20071;-69
2022/06/13 01:08:10;;;;;;;10.70;2.17;;;13.80;97.80;;;;;;5043300;28;20017;-67
2022/06/13 01:13:47;;;;;;;13.27;2.30;;;13.80;97.80;;;;;;5042152;28;20061;-66
2022/06/13 01:16:42;;;;;;;10.63;2.28;;;13.80;97.80;;;;;;5041266;28;20243;-67
2022/06/13 01:19:47;;;;;;;9.75;2.15;;;13.80;97.60;;;;;;5043265;28;20312;-69
2022/06/13 01:22:43;;;;;;;10.73;2.35;;;13.80;97.60;;;;;;5031733;28;20048;-67
2022/06/13 01:25:49;;;;;;;10.98;2.75;;;13.80;97.60;;;;;;5041971;28;20021;-67
2022/06/13 01:28:51;;;;;;;13.68;2.50;;;13.80;97.60;;;;;;5030450;28;20021;-67
2022/06/13 01:31:41;;;;;;;11.30;2.38;;;13.70;97.70;;;;;;5041721;28;20056;-68
2022/06/13 01:34:45;;;;;;;8.70;1.85;;;13.70;97.50;;;;;;5027668;28;20045;-68
2022/06/13 01:37:50;;;;;;;7.60;1.90;;;13.70;97.40;;;;;;5042342;28;20346;-68
2022/06/13 01:40:30;;;;;;;9.85;2.08;;;13.70;97.20;;;;;;5017809;28;20060;-68
2022/06/13 01:43:06;;;;;;;10.10;2.10;;;13.80;97.10;;;;;;5041486;28;20033;-68
2022/06/13 01:45:50;;;;;;;6.28;1.90;;;13.70;97.10;;;;;;5042869;28;20275;-67
2022/06/13 01:48:33;;;;;;;8.52;2.38;;;13.70;97.10;;;;;;5043143;28;20033;-67
2022/06/13 01:51:16;;;;;;;8.57;1.98;;;13.70;97.10;;;;;;5045242;28;20045;-68
2022/06/13 01:53:52;;;;;;;6.45;1.90;;;13.70;96.90;;;;;;5063425;28;20106;-68
2022/06/13 01:56:26;;;;;;;8.63;1.70;;;13.70;96.90;;;;;;5062042;28;20083;-67
2022/06/13 01:59:00;;;;;;;10.00;2.17;;;13.70;97.00;;;;;;5061851;28;20087;-67
2022/06/13 02:01:34;;;;;;;12.18;2.33;;;13.70;97.00;;;;;;5062342;28;20332;-67
2022/06/13 02:04:09;;;;;;;14.15;3.20;;;13.60;97.00;;;;;;5062790;28;20150;-67
2022/06/13 02:06:40;;;;;;;12.90;2.60;;;13.70;97.00;;;;;;5062459;28;20037;-67
2022/06/13 02:09:28;;;;;;;7.83;2.23;;;13.60;97.00;;;;;;5044940;28;20029;-67
2022/06/13 02:11:55;;;;;;;9.98;2.00;;;13.60;97.10;;;;;;5061941;28;20020;-67
2022/06/13 02:14:45;;;;;;;12.57;2.38;;;13.60;97.20;;;;;;5027800;28;20109;-67
2022/06/13 02:17:14;;;;;;;11.60;1.88;;;13.60;97.20;;;;;;5060292;28;20029;-67
2022/06/13 02:20:03;;;;;;;9.90;2.00;;;13.50;97.50;;;;;;5061816;28;20056;-67
2022/06/13 02:22:36;;;;;;;7.78;2.40;;;13.50;97.30;;;;;;5061898;28;20024;-67
2022/06/13 02:25:26;;;;;;;12.95;2.78;;;13.50;97.40;;;;;;5061243;28;20045;-67
2022/06/13 02:28:05;;;;;;;9.35;1.70;;;13.50;97.40;;;;;;5062305;28;20013;-67
2022/06/13 02:30:38;;;;;;;12.73;2.17;;;13.50;97.50;;;;;;5059667;28;20028;-67
2022/06/13 02:33:18;;;;;;;10.50;2.60;;;13.40;97.50;;;;;;5061656;28;20029;-67
2022/06/13 02:35:51;;;;;;;9.27;2.22;;;13.30;97.70;;;;;;5061222;28;20311;-67
2022/06/13 02:38:24;;;;;;;6.75;2.03;;;13.40;97.50;;;;;;5061038;28;20262;-67
2022/06/13 02:40:56;;;;;;;10.45;1.80;;;13.30;97.50;;;;;;5061936;28;20087;-67
2022/06/13 02:43:24;;;;;;;;;;;13.40;97.50;;;;;;5062180;28;20025;-67
2022/06/13 02:45:59;;;;;;;7.35;1.77;;;13.40;97.60;;;;;;5061613;28;19948;-67
2022/06/13 02:48:46;;;;;;;5.35;2.08;;;13.40;97.50;;;;;;5041214;28;20021;-67
2022/06/13 02:51:23;;;;;;;8.20;2.05;;;13.40;97.60;;;;;;5044070;28;20025;-67
2022/06/13 02:54:00;;;;;;;6.72;2.05;;;13.40;97.60;;;;;;5040126;28;20404;-67
2022/06/13 02:56:38;;;;;;;11.70;2.22;;;13.30;97.60;;;;;;5041523;28;20336;-67
2022/06/13 02:59:32;;;;;;;12.10;1.92;;;13.30;97.80;;;;;;5039854;28;20053;-67
2022/06/13 03:02:01;;;;;;;11.68;2.35;;;13.30;97.90;;;;;;5042392;28;20375;-67
2022/06/13 03:04:35;;;;;;;9.52;2.30;;;13.30;97.90;;;;;;5040975;28;20047;-67
2022/06/13 03:07:26;;;;;;;6.18;1.92;;;13.20;98.00;;;;;;5042158;28;20025;-67
2022/06/13 03:09:56;;;;;;;22.25;2.70;;;13.20;98.20;;;;;;5024228;28;20395;-67
2022/06/13 03:12:46;;;;;;;9.57;2.20;;;13.10;98.30;;;;;;5040314;28;20224;-67
2022/06/13 03:15:37;;;;;;;11.63;2.47;;;13.00;98.40;;;;;;5040111;28;20317;-67
2022/06/13 03:18:09;;;;;;;11.38;2.30;;;12.90;98.50;;;;;;5040060;28;20034;-67
2022/06/13 03:20:43;;;;;;;9.80;2.28;;;12.90;98.70;;;;;;5039685;28;20037;-67
2022/06/13 03:23:14;;;;;;;13.80;3.03;;;12.80;98.80;;;;;;5024003;28;20052;-67
2022/06/13 03:25:50;;;;;;;10.98;3.70;;;12.80;98.90;;;;;;5039496;28;20021;-67
2022/06/13 03:28:46;;;;;;;18.02;3.17;;;12.80;99.00;;;;;;5040410;28;20032;-67
2022/06/13 03:31:19;;;;;;;9.20;2.67;;;12.70;99.10;;;;;;5040119;28;20022;-67
2022/06/13 03:33:50;;;;;;;13.90;3.45;;;12.60;99.00;;;;;;5040041;28;20029;-67
2022/06/13 03:36:23;;;;;;;7.85;2.45;;;12.50;99.20;;;;;;5040424;28;20041;-67
2022/06/13 03:39:01;;;;;;;7.22;2.65;;;12.40;99.30;;;;;;5041219;28;20076;-67
2022/06/13 03:41:33;;;;;;;14.18;4.55;;;12.40;99.50;;;;;;5023778;28;20121;-67
2022/06/13 03:44:07;;;;;;;9.88;2.70;;;12.30;99.60;;;;;;5040285;28;20021;-67
2022/06/13 03:46:41;;;;;;;9.95;2.30;;;12.30;99.80;;;;;;5041654;28;20025;-67
2022/06/13 03:49:44;;;;;;;9.05;2.70;;;12.30;99.80;;;;;;5027483;28;20034;-67
2022/06/13 03:52:13;;;;;;;11.00;2.58;;;12.20;99.90;;;;;;5054780;28;20029;-67
2022/06/13 03:54:49;;;;;;;9.88;2.55;;;12.20;99.90;;;;;;5064006;28;20342;-67
2022/06/13 03:57:23;;;;;;;16.63;2.35;;;12.20;99.90;;;;;;5065054;28;20059;-67
2022/06/13 04:00:11;;;;;;;8.07;2.35;;;12.20;99.90;;;;;;5063114;28;20352;-67
2022/06/13 04:02:40;;;;;;;10.00;2.55;;;12.20;99.90;;;;;;5063723;28;20045;-67
2022/06/13 04:05:14;;;;;;;10.80;2.15;;;12.20;99.90;;;;;;5063294;28;20410;-67
2022/06/13 04:07:41;;;;;;;9.90;2.60;;;12.20;99.90;;;;;;5064247;28;20017;-67
2022/06/13 04:10:12;;;;;;;10.75;1.90;;;12.20;99.90;;;;;;5063432;28;20259;-67
2022/06/13 04:13:06;;;;;;;6.55;1.90;;;12.10;99.90;;;;;;5065141;28;20324;-67
2022/06/13 04:16:12;;;;;;;8.10;2.10;;;12.10;99.90;;;;;;5050434;28;20032;-67
2022/06/13 04:19:06;;;;;;;6.90;2.47;;;12.20;99.90;;;;;;5049799;28;20056;-67
2022/06/13 04:21:47;;;;;;;8.23;2.50;;;12.20;99.90;;;;;;5063413;28;20037;-67
2022/06/13 04:24:25;;;;;;;11.02;1.80;;;12.30;99.90;;;;;;5046867;28;20100;-67
2022/06/13 04:27:01;;;;;;;7.38;1.95;;;12.30;99.90;;;;;;5064246;28;20032;-67
2022/06/13 04:29:34;;;;;;;9.50;2.42;;;12.30;99.90;;;;;;5063003;28;20239;-70
2022/06/13 04:32:05;;;;;;;10.80;1.80;;;12.30;99.90;;;;;;5064045;28;20264;-67
2022/06/13 04:34:38;;;;;;;7.85;2.10;;;12.40;99.90;;;;;;5063490;28;20223;-67
2022/06/13 04:37:05;;;;;;;7.07;1.83;;;12.50;99.80;;;;;;5063915;28;20078;-67
2022/06/13 04:39:34;;;;;;;7.90;1.98;;;12.70;99.50;;;;;;5063455;28;20282;-67
2022/06/13 04:42:03;;;;;;;22.63;2.35;;;12.90;99.10;;;;;;5064764;28;20078;-67
2022/06/13 04:44:32;;;;;;;7.57;1.50;;;13.20;98.80;;;;;;5063216;28;20036;-67
2022/06/13 04:46:58;;;;;;;6.68;1.55;;;13.40;98.40;;;;;;5053394;28;20029;-67
2022/06/13 04:49:49;;;;;;;12.20;1.98;;;13.70;97.80;;;;;;5044107;28;20313;-67
2022/06/13 04:52:22;;;;;;;9.68;2.75;;;13.80;97.40;;;;;;5045333;28;20304;-67
2022/06/13 04:55:02;;;;;;;10.40;2.08;;;14.10;97.00;;;;;;5043261;28;20419;-68
2022/06/13 04:57:29;;;;;;;8.32;1.77;;;14.30;96.50;;;;;;5025637;28;20330;-68
2022/06/13 04:59:56;;;;;;;5.53;1.77;;;14.50;96.10;;;;;;5041658;28;20071;-68
2022/06/13 05:02:33;;;;;;;5.88;1.77;;;14.60;95.90;;;;;;5043804;28;20209;-67
2022/06/13 05:04:59;;;;;;;17.25;1.90;;;14.80;95.60;;;;;;5043905;28;20033;-68
2022/06/13 05:07:24;;;;;;;7.15;2.17;;;15.00;95.10;;;;;;5043599;28;20108;-67
2022/06/13 05:10:13;;;;;;;7.32;2.00;;;15.00;95.10;;;;;;5042438;28;20021;-67
2022/06/13 05:12:42;;;;;;;7.43;1.60;;;15.00;95.10;;;;;;5041937;28;20037;-68
2022/06/13 05:15:15;;;;;;;6.18;1.52;;;15.10;95.10;;;;;;5042793;28;20316;-68
2022/06/13 05:18:10;;;;;;;10.00;1.60;;;15.30;94.70;;;;;;5042174;28;21072;-68
2022/06/13 05:21:15;;;;;;;6.20;1.90;;;15.30;94.60;;;;;;5042475;28;20332;-68
2022/06/13 05:24:03;;;;;;;8.77;1.70;;;15.10;94.90;;;;;;5030502;28;20031;-68
2022/06/13 05:26:29;;;;;;;5.25;1.35;;;14.90;94.90;;;;;;5042799;28;20224;-68
2022/06/13 05:28:56;;;;;;;7.13;1.55;;;14.70;95.40;;;;;;5042313;28;20064;-68
2022/06/13 05:31:23;;;;;;;5.15;1.55;;;14.50;95.90;;;;;;5041051;28;20071;-68
2022/06/13 05:33:50;;;;;;;11.10;2.05;;;14.30;96.10;;;;;;5024941;28;20033;-68
2022/06/13 05:36:19;;;;;;;7.25;1.48;;;14.30;96.70;;;;;;5041172;28;20029;-68
2022/06/13 05:39:06;;;;;;;8.98;1.85;;;14.20;96.50;;;;;;5041755;28;20316;-68
2022/06/13 05:41:31;;;;;;;8.90;1.70;;;14.20;96.70;;;;;;5042193;28;20042;-68
2022/06/13 05:43:57;;;;;;;5.30;1.83;;;14.30;96.60;;;;;;5040762;28;20049;-69
2022/06/13 05:46:28;;;;;;;7.07;1.63;;;14.30;96.70;;;;;;5024596;28;20136;-68
2022/06/13 05:48:54;;;;;;;9.48;1.27;;;14.30;96.30;;;;;;5040668;28;20114;-68
2022/06/13 05:51:20;;;;;;;5.53;1.50;;;14.30;96.20;;;;;;5041384;28;20067;-68
2022/06/13 05:53:46;;;;;;;10.93;1.70;;;14.30;96.10;;;;;;5041292;28;20304;-69
2022/06/13 05:56:12;;;;;;;4.72;1.10;;;14.40;96.40;;;;;;5040030;28;20350;-68
2022/06/13 05:58:38;;;;;;;6.28;1.48;;;14.40;96.30;;;;;;5040815;28;20041;-69
2022/06/13 06:01:05;;;;;;;4.50;1.05;;;14.40;96.00;;;;;;5042439;28;20083;-68
2022/06/13 06:03:32;;;;;;;6.70;1.73;;;14.40;96.10;;;;;;5024182;28;20328;-68
2022/06/13 06:05:59;;;;;;;5.85;0.95;;;14.40;96.00;;;;;;5042302;28;20030;-68
2022/06/13 06:08:30;;;;;;;8.32;1.75;;;14.40;96.00;;;;;;5025606;28;20025;-70
2022/06/13 06:10:57;;;;;;;5.90;1.20;;;14.50;95.90;;;;;;5024729;28;20435;-68
2022/06/13 06:13:24;;;;;;;9.13;1.60;;;14.50;95.60;;;;;;5040481;28;20041;-68
2022/06/13 06:15:50;;;;;;;6.70;1.52;;;14.50;95.90;;;;;;5040742;28;20334;-68
2022/06/13 06:18:18;;;;;;;7.07;1.70;;;14.60;95.80;;;;;;5038105;28;20079;-70
2022/06/13 06:20:44;;;;;;;8.18;1.50;;;14.60;95.60;;;;;;5039575;28;20351;-69
2022/06/13 06:23:12;;;;;;;5.07;1.17;;;14.70;95.40;;;;;;5039872;28;20032;-69
2022/06/13 06:25:39;;;;;;;7.55;1.20;;;14.60;95.40;;;;;;5040668;28;20312;-69
2022/06/13 06:28:06;;;;;;;5.50;1.20;;;14.60;95.50;;;;;;5038954;28;20067;-69
2022/06/13 06:30:33;;;;;;;3.90;1.23;;;14.70;95.60;;;;;;5042080;28;20025;-70
2022/06/13 06:32:59;;;;;;;7.15;1.50;;;14.70;95.50;;;;;;5042420;28;20067;-69
2022/06/13 06:35:27;;;;;;;6.28;1.48;;;14.80;95.60;;;;;;5041330;28;20033;-69
2022/06/13 06:37:54;;;;;;;9.95;1.45;;;14.90;95.40;;;;;;5041893;28;20028;-68
2022/06/13 06:40:23;;;;;;;6.03;1.50;;;15.10;95.00;;;;;;5042920;28;20244;-70
2022/06/13 06:42:49;;;;;;;7.47;1.70;;;15.10;94.90;;;;;;5041596;28;20305;-68
2022/06/13 06:45:15;;;;;;;5.22;1.30;;;15.10;94.90;;;;;;5041035;28;20021;-68
2022/06/13 06:47:41;;;;;;;4.63;1.05;;;15.20;94.60;;;;;;5042968;28;20080;-70
2022/06/13 06:50:13;;;;;;;3.22;1.27;;;15.20;94.10;;;;;;5041927;28;20024;-71
2022/06/13 06:52:39;;;;;;;5.25;1.50;;;15.20;94.00;;;;;;5056322;28;20382;-68
2022/06/13 07:00:38;;;;;;;6.15;1.13;;;15.30;93.90;;;;;;5041058;28;20029;-70
2022/06/13 07:03:03;;;;;;;4.03;1.20;;;15.40;93.80;;;;;;5053530;28;20368;-70
2022/06/13 07:05:30;;;;;;;4.65;1.17;;;15.40;92.80;;;;;;5062058;28;20052;-68
2022/06/13 07:07:56;;;;;;;4.55;1.17;;;15.40;93.30;;;;;;5040259;28;20105;-69
2022/06/13 07:10:21;;;;;;;5.55;1.20;;;15.50;92.70;;;;;;5042953;28;20067;-69
2022/06/13 07:12:47;;;;;;;4.53;1.20;;;15.40;92.60;;;;;;5041540;28;20013;-69
2022/06/13 07:15:14;;;;;;;3.55;1.13;;;15.50;92.70;;;;;;5042008;28;20212;-70
2022/06/13 07:17:40;;;;;;;5.78;1.40;;;15.50;92.70;;;;;;5042639;28;20041;-71
2022/06/13 07:20:06;;;;;;;5.90;1.55;;;15.60;92.40;;;;;;5039234;28;20088;-70
2022/06/13 07:22:32;;;;;;;1.63;1.10;;;15.60;92.30;;;;;;5041106;28;20090;-70
2022/06/13 07:24:58;;;;;;;3.83;1.00;;;15.70;91.60;;;;;;5044488;28;20031;-70
2022/06/13 07:27:23;;;;;;;2.85;1.20;;;15.70;92.20;;;;;;5062051;28;20032;-68
2022/06/13 07:29:49;;;;;;;5.45;1.63;;;15.80;91.90;;;;;;5062422;28;20021;-71
2022/06/13 07:32:19;;;;;;;5.82;0.90;;;15.70;92.30;;;;;;5061943;28;20024;-69
2022/06/13 07:34:48;;;;;;;3.35;1.10;;;15.70;92.10;;;;;;5061288;28;20327;-71
2022/06/13 07:38:16;;;;;;;6.70;1.30;;;15.70;92.30;;;;;;5043328;28;20022;-69
2022/06/13 07:40:04;;;;;;;5.72;1.20;;;15.80;92.10;;;;;;5041314;28;20100;-70
2022/06/13 07:42:35;;;;;;;4.15;1.17;;;15.90;92.10;;;;;;5024609;28;20237;-70
2022/06/13 07:45:02;;;;;;;3.80;1.42;;;16.00;91.60;;;;;;5041047;28;20306;-69
2022/06/13 07:47:27;;;;;;;5.82;1.10;;;16.10;91.20;;;;;;5041851;28;20033;-69
2022/06/13 07:49:53;;;;;;;5.88;1.35;;;16.20;91.30;;;;;;5041720;28;20029;-72
2022/06/13 07:52:19;;;;;;;3.80;1.50;;;16.30;90.50;;;;;;5041874;28;20208;-68
2022/06/13 07:54:44;;;;;;;5.78;1.10;;;16.20;90.30;;;;;;5040537;28;20022;-67
2022/06/13 07:57:11;;;;;;;5.22;1.00;;;16.20;90.10;;;;;;5041001;28;20052;-69
2022/06/13 07:59:36;;;;;;;3.30;1.10;;;16.10;89.90;;;;;;5040462;28;20060;-71
2022/06/13 08:02:03;;;;;;;3.35;1.02;;;16.20;90.00;;;;;;5041357;28;20022;-68
2022/06/13 08:04:28;;;;;;;5.25;1.42;;;16.10;90.20;;;;;;5040895;28;20025;-69
2022/06/13 08:06:54;;;;;;;3.25;1.20;;;16.20;89.50;;;;;;5041107;28;20031;-67
2022/06/13 08:09:21;;;;;;;2.60;1.10;;;16.20;88.80;;;;;;5041678;28;20029;-70
2022/06/13 08:11:50;;;;;;;5.43;1.25;;;16.30;89.60;;;;;;5040320;28;20021;-69
2022/06/13 08:14:16;;;;;;;2.83;1.02;;;16.30;90.10;;;;;;5035440;28;20088;-70
2022/06/13 08:16:42;;;;;;;5.70;1.23;;;16.50;90.40;;;;;;5042275;28;20232;-69
2022/06/13 08:19:08;;;;;;;6.28;1.35;;;16.70;90.20;;;;;;5040317;28;20037;-67
2022/06/13 08:21:38;;;;;;;5.25;1.13;;;16.80;89.80;;;;;;5039335;28;20197;-69
2022/06/13 08:24:05;;;;;;;4.07;1.27;;;16.80;88.40;;;;;;5042604;28;20029;-71
2022/06/13 08:26:31;;;;;;;3.83;1.20;;;16.80;88.50;;;;;;5042945;28;20025;-68
2022/06/13 08:28:57;;;;;;;5.80;1.20;;;16.90;89.40;;;;;;5060247;28;20056;-69
2022/06/13 08:31:22;;;;;;;8.13;1.42;;;17.00;89.20;;;;;;5060007;28;20021;-70
2022/06/13 08:33:49;;;;;;;8.00;1.50;;;17.20;87.40;;;;;;5043574;28;20189;-69
2022/06/13 08:36:15;;;;;;;5.70;1.38;;;17.10;88.10;;;;;;5063185;28;20025;-70
2022/06/13 08:38:41;;;;;;;2.78;1.40;;;17.20;88.20;;;;;;5063932;28;20241;-69
2022/06/13 08:41:41;;;;;;;6.40;1.38;;;17.20;87.80;;;;;;5062286;28;20035;-68
2022/06/13 08:44:47;;;;;;;2.00;1.10;;;17.40;87.00;;;;;;5062449;28;20209;-71
2022/06/13 08:47:47;;;;;;;3.78;1.20;;;17.50;87.10;;;;;;5045608;28;20367;-70
2022/06/13 08:50:53;;;;;;;3.90;1.20;;;17.70;85.90;;;;;;5042988;28;20017;-71
2022/06/13 08:53:23;;;;;;;3.25;1.25;;;17.80;85.60;;;;;;5065543;28;20032;-69
2022/06/13 08:55:54;;;;;;;8.30;1.10;;;18.00;84.30;;;;;;5062710;28;20040;-69
2022/06/13 08:58:38;;;;;;;2.85;1.38;;;18.10;83.00;;;;;;5062208;28;20056;-70
2022/06/13 09:01:28;;;;;;;5.00;1.08;;;18.10;83.40;;;;;;5063799;28;20106;-70
2022/06/13 09:04:05;;;;;;;3.25;1.20;;;18.20;80.70;;;;;;5062283;28;20036;-69
2022/06/13 09:06:40;;;;;;;2.63;1.08;;;18.30;81.00;;;;;;5063659;28;20050;-70
2022/06/13 09:09:31;;;;;;;6.25;1.08;;;18.30;79.70;;;;;;5063256;28;20240;-69
2022/06/13 09:12:04;;;;;;;1.30;1.00;;;18.30;76.90;;;;;;5045337;28;20316;-68
2022/06/13 09:14:54;;;;;;;2.03;1.15;;;18.20;79.80;;;;;;5025699;28;20036;-68
2022/06/13 09:17:28;;;;;;;3.30;0.90;;;18.10;76.20;;;;;;5038768;28;20033;-67
2022/06/13 09:20:04;;;;;;;2.75;1.05;;;18.20;77.60;;;;;;5041637;28;20033;-70
2022/06/13 09:22:55;;;;;;;3.85;0.98;;;18.40;77.50;;;;;;5008759;28;20096;-72
2022/06/13 09:25:37;;;;;;;3.00;1.20;;;18.70;78.30;;;;;;5041876;28;20324;-70
2022/06/13 09:28:15;;;;;;;2.08;1.13;;;18.70;77.50;;;;;;5043291;28;20035;-72
2022/06/13 09:30:48;;;;;;;2.60;1.02;;;18.60;78.10;;;;;;5042877;28;20224;-69
2022/06/13 09:33:22;;;;;;;2.42;1.08;;;18.80;77.20;;;;;;5042771;28;20028;-71
2022/06/13 09:35:59;;;;;;;2.17;0.93;;;18.90;73.90;;;;;;5044137;28;20025;-72
2022/06/13 09:38:33;;;;;;;1.98;1.20;;;18.80;74.70;;;;;;5044215;28;20017;-70
2022/06/13 09:41:33;;;;;;;2.25;1.08;;;18.80;75.40;;;;;;5025929;28;20040;-71
2022/06/13 09:44:17;;;;;;;6.00;1.10;;;18.80;76.20;;;;;;5042943;28;20079;-69
2022/06/13 09:47:09;;;;;;;3.65;0.90;;;18.70;75.20;;;;;;5029428;28;20029;-71
2022/06/13 09:49:43;;;;;;;4.28;1.10;;;18.70;74.20;;;;;;5029965;28;20032;-68
2022/06/13 09:52:48;;;;;;;3.67;1.30;;;18.90;81.20;;;;;;5043820;28;20017;-70
2022/06/13 09:55:25;;;;;;;4.97;1.63;;;18.80;81.70;;;;;;5018347;28;20028;-71
2022/06/13 09:58:23;;;;;;;3.80;1.30;;;18.70;81.10;;;;;;5043180;28;20056;-70
2022/06/13 10:01:29;;;;;;;4.03;1.25;;;18.80;80.10;;;;;;5030161;28;20030;-70
2022/06/13 10:04:04;;;;;;;6.32;1.77;;;18.90;78.10;;;;;;5032018;28;20034;-70
2022/06/13 10:06:56;;;;;;;6.93;1.50;;;19.10;77.90;;;;;;5043759;28;20070;-70
2022/06/13 10:09:42;;;;;;;2.25;0.98;;;19.30;77.10;;;;;;5042860;28;20079;-71
2022/06/13 10:12:32;;;;;;;4.30;1.20;;;19.30;76.80;;;;;;5043591;28;20079;-71
2022/06/13 10:15:16;;;;;;;4.40;1.40;;;19.40;76.40;;;;;;5042318;28;20043;-72
2022/06/13 10:18:11;;;;;;;3.65;1.08;;;19.70;76.80;;;;;;5042109;28;20029;-72
2022/06/13 10:21:02;;;;;;;1.80;1.10;;;19.60;75.00;;;;;;5042686;28;20041;-71
2022/06/13 10:24:00;;;;;;;1.77;1.00;;;19.60;75.50;;;;;;5041761;28;20036;-71
2022/06/13 10:26:56;;;;;;;5.30;1.20;;;19.70;75.00;;;;;;5042011;28;20092;-68
2022/06/13 10:30:03;;;;;;;6.60;1.50;;;19.80;75.00;;;;;;5042393;28;20212;-72
2022/06/13 10:33:05;;;;;;;3.58;1.35;;;20.00;75.40;;;;;;5034575;28;20029;-70
2022/06/13 10:35:37;;;;;;;;;;;20.00;74.10;;;;;;5042696;28;20033;-73
2022/06/13 10:38:09;;;;;;;;;;;20.00;74.50;;;;;;5041421;28;19913;-72
2022/06/13 10:40:35;;;;;;;;;;;20.10;76.30;;;;;;5042901;28;19909;-73
2022/06/13 10:43:04;;;;;;;5.13;1.55;;;20.10;75.20;;;;;;5042591;28;19932;-71
2022/06/13 10:45:30;;;;;;;4.35;1.33;;;19.90;76.70;;;;;;5041203;28;20037;-70
2022/06/13 10:48:21;;;;;;;3.25;1.60;;;20.10;75.90;;;;;;5042297;28;20304;-71
2022/06/13 10:51:04;;;;;;;5.28;1.40;;;20.20;75.50;;;;;;5040724;28;20013;-73
2022/06/13 10:54:06;;;;;;;3.88;1.60;;;20.20;75.60;;;;;;5039967;28;20296;-72
2022/06/13 10:56:42;;;;;;;5.57;1.10;;;20.30;74.70;;;;;;5039896;28;20029;-69
2022/06/13 10:59:22;;;;;;;3.33;1.42;;;20.60;75.00;;;;;;5038416;28;20057;-70
2022/06/13 11:01:58;;;;;;;2.67;1.50;;;20.30;75.30;;;;;;5040684;28;20021;-70
2022/06/13 11:04:24;;;;;;;3.45;1.60;;;20.30;75.20;;;;;;5039686;28;20025;-70
2022/06/13 11:06:54;;;;;;;4.30;1.67;;;20.40;74.70;;;;;;5039601;28;20056;-70
2022/06/13 11:09:47;;;;;;;3.85;1.60;;;20.40;75.30;;;;;;5040610;28;20021;-69
2022/06/13 11:12:25;;;;;;;5.95;1.38;;;20.50;74.90;;;;;;5040352;28;20309;-70
2022/06/13 11:23:38;;;;;;;3.85;1.30;;;20.20;72.90;;;;;;5039332;28;20021;-70
2022/06/13 11:27:39;;;;;;;4.15;1.55;;;20.30;73.60;;;;;;5040618;28;20338;-71
2022/06/13 11:28:50;;;;;;;3.13;1.42;;;20.40;74.00;;;;;;5040779;28;20041;-70
2022/06/13 11:31:20;;;;;;;2.33;1.20;;;20.50;73.90;;;;;;5040321;28;20033;-70
2022/06/13 11:33:46;;;;;;;3.78;1.50;;;20.50;73.90;;;;;;5041110;28;20029;-70
2022/06/13 11:36:26;;;;;;;8.13;1.67;;;20.50;74.30;;;;;;5040516;28;20088;-71
2022/06/13 11:38:59;;;;;;;3.42;1.38;;;20.60;74.50;;;;;;5024197;28;20236;-71
2022/06/13 11:41:46;;;;;;;2.53;1.40;;;20.80;73.60;;;;;;5039700;28;20036;-70
2022/06/13 11:44:19;;;;;;;6.20;1.98;;;20.80;73.30;;;;;;5023823;28;20235;-70
2022/06/13 11:46:58;;;;;;;5.47;1.70;;;20.60;73.30;;;;;;5041563;28;20025;-70
2022/06/13 11:49:32;;;;;;;4.13;1.50;;;20.50;73.70;;;;;;5041915;28;20048;-70
2022/06/13 11:55:19;;;;;;;4.10;1.58;;;21.00;72.30;;;;;;5044659;28;20194;-70
2022/06/13 11:57:52;;;;;;;4.43;1.40;;;21.00;72.30;;;;;;5025117;28;20100;-70
2022/06/13 12:00:26;;;;;;;8.88;2.17;;;20.80;73.80;;;;;;5061521;28;20072;-70
2022/06/13 12:03:04;;;;;;;2.88;1.50;;;20.40;75.00;;;;;;5060762;28;20025;-72
2022/06/13 12:05:39;;;;;;;2.97;1.60;;;20.40;74.60;;;;;;5045065;28;20037;-69
2022/06/13 12:08:19;;;;;;;4.72;1.40;;;20.40;74.60;;;;;;5057088;28;20043;-70
2022/06/13 12:11:00;;;;;;;4.95;2.00;;;20.50;74.40;;;;;;5043154;28;20084;-70
2022/06/13 12:13:27;;;;;;;3.22;1.60;;;20.40;74.30;;;;;;5044320;28;20037;-71
2022/06/13 12:16:11;;;;;;;4.63;1.55;;;20.50;75.80;;;;;;5043517;28;20300;-70
2022/06/13 12:19:02;;;;;;;5.43;1.50;;;20.50;75.80;;;;;;5044071;28;20022;-68
2022/06/13 12:21:38;;;;;;;8.63;2.17;;;20.40;76.10;;;;;;5030388;28;20233;-70
2022/06/13 12:24:44;;;;;;;4.38;1.73;;;20.40;75.20;;;;;;5042206;28;20025;-71
2022/06/13 12:27:36;;;;;;;9.23;1.77;;;20.10;75.60;;;;;;5019791;28;20138;-71
2022/06/13 12:30:42;;;;;;;4.45;1.38;;;19.90;77.20;;;;;;5044370;28;20220;-70
2022/06/13 12:33:47;;;;;;;8.63;1.75;;;19.70;78.00;;;;;;5033019;28;20076;-70
2022/06/13 12:36:55;;;;;;;3.35;1.52;;;19.50;78.40;;;;;;5033590;28;20029;-70
2022/06/13 12:39:46;;;;;;;2.83;1.50;;;19.60;77.60;;;;;;5033885;28;20343;-70
2022/06/13 12:42:52;;;;;;;7.88;1.60;;;19.60;77.00;;;;;;5053353;28;20032;-70
2022/06/13 12:45:44;;;;;;;3.78;1.30;;;19.60;76.60;;;;;;5063082;28;20031;-70
2022/06/13 12:48:39;;;;;;;5.15;1.63;;;19.50;76.40;;;;;;5044316;28;20208;-69
2022/06/13 12:51:14;;;;;;;3.58;1.50;;;19.50;75.40;;;;;;5048049;28;20024;-71
2022/06/13 12:54:06;;;;;;;4.78;1.80;;;19.40;76.20;;;;;;5044842;28;20127;-70
2022/06/13 12:56:58;;;;;;;4.22;1.40;;;19.50;75.90;;;;;;5049069;28;20033;-68
2022/06/13 12:59:50;;;;;;;4.53;1.45;;;19.50;74.50;;;;;;5063017;28;20214;-70
2022/06/13 13:02:21;;;;;;;;;;;19.60;75.80;;;;;;5064721;28;20127;-69
2022/06/13 13:05:14;;;;;;;12.07;1.88;;;19.60;76.30;;;;;;5063734;28;20271;-69
2022/06/13 13:08:11;;;;;;;5.68;1.60;;;19.80;76.20;;;;;;5047182;28;20044;-69
2022/06/13 13:11:05;;;;;;;5.72;1.77;;;20.00;76.20;;;;;;5064683;28;20304;-69
2022/06/13 13:14:11;;;;;;;8.45;1.95;;;20.20;76.50;;;;;;5046002;28;20041;-70
2022/06/13 13:17:07;;;;;;;5.85;1.60;;;20.30;76.70;;;;;;5019094;28;20021;-70
2022/06/13 13:19:48;;;;;;;11.32;1.63;;;20.70;75.70;;;;;;5043145;28;20029;-68
2022/06/13 13:22:26;;;;;;;5.95;1.80;;;20.70;74.70;;;;;;5044578;28;20013;-68
2022/06/13 13:25:17;;;;;;;4.88;1.33;;;20.60;75.30;;;;;;5043108;28;20115;-69
2022/06/13 13:27:58;;;;;;;8.73;1.65;;;20.40;75.40;;;;;;5029976;28;20296;-68
2022/06/13 13:30:32;;;;;;;7.93;1.90;;;20.30;76.60;;;;;;5044613;28;20029;-69
2022/06/13 13:33:15;;;;;;;4.50;1.52;;;20.30;76.50;;;;;;5044540;28;20220;-70
2022/06/13 13:35:50;;;;;;;1.70;1.20;;;20.30;76.40;;;;;;5044143;28;20325;-68
2022/06/13 13:38:26;;;;;;;4.13;1.40;;;20.40;75.70;;;;;;5042926;28;20340;-71
2022/06/13 13:41:21;;;;;;;4.32;1.90;;;20.40;76.30;;;;;;5045270;28;20038;-70
2022/06/13 13:43:55;;;;;;;6.55;1.63;;;20.60;76.10;;;;;;5030973;28;20072;-69
2022/06/13 13:46:43;;;;;;;3.28;1.20;;;20.60;75.50;;;;;;5027491;28;20067;-69
2022/06/13 13:49:24;;;;;;;4.55;1.50;;;20.70;75.30;;;;;;5044003;28;20213;-70
2022/06/13 13:51:57;;;;;;;5.35;1.60;;;21.00;74.60;;;;;;5047626;28;20071;-70
2022/06/13 13:54:45;;;;;;;6.88;1.80;;;21.20;73.90;;;;;;5046103;28;20301;-69
2022/06/13 13:57:39;;;;;;;5.28;1.70;;;21.50;72.90;;;;;;5045013;28;20205;-71